首页
METAR-TAF:

METAR-TAF

机场 :

北京首都国际机场

北京, 中华人民共和国

纬度: 39-56N, 经度: 116-17E, 海拔: 55米

当前天气观测

该预报发布于37分钟前的14:00 UTC
风速2节,风向多变
温度 6°C
湿度 75%
气压 1016 hPa
能见度10公里或以上
1500米以下无云,无积雨云

METAR: ZBAA 231400Z VRB01MPS CAVOK 06/02 Q1016 NOSIG

时间: 22:37 (14:37 UTC)

预报

该预报发布于5小时和17分钟前的09:20 UTC
预报有效从23日的 12点(UTC)到 24日的 12点(UTC)
风速8节,风向
能见度10公里或以上
1500米以下无云,无积雨云

TAF: ZBAA 230920Z 2312/2412 19004MPS CAVOK TX21/2407Z TN03/2321Z

超过4000个机场的气象观测和天气预报(METAR&TAF报告)。

可查询的气象台以黄色和红色小点在地图上表示。

将鼠标移到小点上方,可查看气象台名称。

然后点击查看天气观测和预报。

如需切换地图:点击带黑十字的绿色按钮放大地图;点击带横线的绿色按钮缩小地图;或者点击绿色箭头查看邻近地区的地图。


METAR-TAF: